createdAt,value
2022-07-30T00:01:32.027Z,5.18
2022-07-30T00:06:37.815Z,3.18
2022-07-30T00:11:45.205Z,2.56
2022-07-30T00:16:51.501Z,2.76
2022-07-30T00:21:58.347Z,3.19
2022-07-30T00:27:04.722Z,4.10
2022-07-30T00:32:11.066Z,2.62
2022-07-30T00:37:17.435Z,3.04
2022-07-30T00:42:23.645Z,2.54
2022-07-30T00:47:30.001Z,3.53
2022-07-30T00:52:36.207Z,2.35
2022-07-30T00:57:42.037Z,2.58
2022-07-30T01:02:49.275Z,5.71
2022-07-30T01:07:55.587Z,3.51
2022-07-30T01:13:01.881Z,3.18
2022-07-30T01:18:08.268Z,3.35
2022-07-30T01:23:14.440Z,2.59
2022-07-30T01:28:20.709Z,6.18
2022-07-30T01:33:26.934Z,2.82
2022-07-30T01:38:35.143Z,5.24
2022-07-30T01:43:38.987Z,2.90
2022-07-30T01:48:45.298Z,3.89
2022-07-30T01:53:51.740Z,2.90
2022-07-30T01:58:58.046Z,2.71
2022-07-30T02:04:04.592Z,2.97
2022-07-30T02:09:11.512Z,2.79
2022-07-30T02:14:16.580Z,2.67
2022-07-30T02:19:22.839Z,3.01
2022-07-30T02:24:28.646Z,2.99
2022-07-30T02:29:34.983Z,2.66
2022-07-30T02:34:41.247Z,2.53
2022-07-30T02:39:47.505Z,4.88
2022-07-30T02:44:53.831Z,5.26
2022-07-30T02:50:00.187Z,2.55
2022-07-30T02:55:06.389Z,2.99
2022-07-30T03:00:12.697Z,2.88
2022-07-30T03:05:18.950Z,2.83
2022-07-30T03:10:25.272Z,5.97
2022-07-30T03:15:31.599Z,2.65
2022-07-30T03:20:37.974Z,5.05
2022-07-30T03:25:44.315Z,2.56
2022-07-30T03:30:50.570Z,2.79
2022-07-30T03:35:56.898Z,4.57
2022-07-30T03:41:03.315Z,2.55
2022-07-30T03:46:09.644Z,2.52
2022-07-30T03:51:15.947Z,2.77
2022-07-30T03:56:22.293Z,2.44
2022-07-30T04:01:28.722Z,6.00
2022-07-30T04:06:34.950Z,2.49
2022-07-30T04:11:42.057Z,5.06
2022-07-30T04:16:47.066Z,5.24
2022-07-30T04:21:53.397Z,5.13
2022-07-30T04:26:59.792Z,4.59
2022-07-30T04:32:05.909Z,3.04
2022-07-30T04:37:12.236Z,4.64
2022-07-30T04:42:18.651Z,5.06
2022-07-30T04:47:24.973Z,4.33
2022-07-30T04:52:31.303Z,3.09
2022-07-30T04:57:37.551Z,2.67
2022-07-30T05:02:43.804Z,3.42
2022-07-30T05:07:50.135Z,2.71
2022-07-30T05:12:56.479Z,2.92
2022-07-30T05:18:02.703Z,4.50
2022-07-30T05:23:09.072Z,2.62
2022-07-30T05:28:15.298Z,2.54
2022-07-30T05:33:21.564Z,3.10
2022-07-30T05:38:28.860Z,2.42
2022-07-30T05:43:33.135Z,2.82
2022-07-30T05:48:39.486Z,2.29
2022-07-30T05:53:45.750Z,3.16
2022-07-30T05:58:52.197Z,3.46
2022-07-30T06:03:59.265Z,6.64
2022-07-30T06:09:04.868Z,2.89
2022-07-30T06:14:11.114Z,4.82
2022-07-30T06:19:19.534Z,7.08
2022-07-30T06:24:22.962Z,6.86
2022-07-30T06:29:28.804Z,5.67
2022-07-30T06:34:35.382Z,7.11
2022-07-30T06:39:55.932Z,7.14
2022-07-30T06:44:47.485Z,12.52
2022-07-30T06:49:54.327Z,6.25
2022-07-30T06:55:00.620Z,6.85
2022-07-30T07:00:06.917Z,6.49
2022-07-30T07:05:13.205Z,6.75
2022-07-30T07:10:20.625Z,6.47
2022-07-30T07:15:32.403Z,6.19
2022-07-30T07:20:34.002Z,6.48
2022-07-30T07:25:40.269Z,5.84
2022-07-30T07:30:46.590Z,6.26
2022-07-30T07:35:52.823Z,5.61
2022-07-30T07:40:59.209Z,6.50
2022-07-30T07:46:05.587Z,12.83
2022-07-30T07:51:11.735Z,5.67
2022-07-30T07:56:18.503Z,6.70
2022-07-30T08:01:25.861Z,6.80
2022-07-30T08:06:32.387Z,7.22
2022-07-30T08:11:38.785Z,5.97
2022-07-30T08:16:45.127Z,5.56
2022-07-30T08:21:51.817Z,6.45
2022-07-30T08:26:59.999Z,11.91
2022-07-30T08:32:06.449Z,10.95
2022-07-30T08:37:14.130Z,9.17
2022-07-30T08:42:18.556Z,13.57
2022-07-30T08:47:24.847Z,9.73
2022-07-30T08:52:31.139Z,9.49
2022-07-30T08:57:37.432Z,17.04
2022-07-30T09:02:45.032Z,13.05
2022-07-30T09:07:51.125Z,8.88
2022-07-30T09:12:57.480Z,11.86
2022-07-30T09:18:03.829Z,8.09
2022-07-30T09:23:10.127Z,7.52
2022-07-30T09:28:16.963Z,7.42
2022-07-30T09:33:23.472Z,6.08
2022-07-30T09:38:29.672Z,6.60
2022-07-30T09:43:35.939Z,5.44
2022-07-30T09:48:42.262Z,9.67
2022-07-30T09:53:48.467Z,12.17
2022-07-30T09:58:54.781Z,6.37
2022-07-30T10:04:00.581Z,5.69
2022-07-30T10:09:14.104Z,7.12
2022-07-30T10:14:12.117Z,9.05
2022-07-30T10:19:23.528Z,5.36
2022-07-30T10:24:27.683Z,9.06
2022-07-30T10:29:34.062Z,5.71
2022-07-30T10:34:42.473Z,4.86
2022-07-30T10:39:44.642Z,7.52
2022-07-30T10:44:50.441Z,6.42
2022-07-30T10:49:56.940Z,5.89
2022-07-30T10:55:04.204Z,5.55
2022-07-30T11:00:10.125Z,5.95
2022-07-30T11:05:18.271Z,5.17
2022-07-30T11:10:23.493Z,4.56
2022-07-30T11:15:33.174Z,6.83
2022-07-30T11:20:35.616Z,6.93
2022-07-30T11:25:51.065Z,8.06
2022-07-30T11:30:49.426Z,5.72
2022-07-30T11:35:55.225Z,4.24
2022-07-30T11:41:00.492Z,4.78
2022-07-30T11:46:06.313Z,2.72
2022-07-30T11:51:12.713Z,3.50
2022-07-30T11:56:18.955Z,3.99
2022-07-30T12:01:25.348Z,2.74
2022-07-30T12:06:31.611Z,2.78
2022-07-30T12:11:38.024Z,3.55
2022-07-30T12:16:44.531Z,4.11
2022-07-30T12:21:53.313Z,5.67
2022-07-30T12:26:57.820Z,3.50
2022-07-30T12:32:04.193Z,5.71
2022-07-30T12:37:11.397Z,5.93
2022-07-30T12:42:17.713Z,3.23
2022-07-30T12:47:24.226Z,4.40
2022-07-30T12:52:34.571Z,3.37
2022-07-30T12:57:38.256Z,3.94
2022-07-30T13:02:44.519Z,3.96
2022-07-30T13:07:50.842Z,3.74
2022-07-30T13:12:57.248Z,3.56
2022-07-30T13:18:03.500Z,2.68
2022-07-30T13:23:09.877Z,2.52
2022-07-30T13:28:18.250Z,2.76
2022-07-30T13:33:24.576Z,3.29
2022-07-30T13:38:30.905Z,3.85
2022-07-30T13:43:37.283Z,2.88
2022-07-30T13:48:43.658Z,3.87
2022-07-30T13:53:49.890Z,2.60
2022-07-30T13:58:57.274Z,1.92
2022-07-30T14:04:03.258Z,3.31
2022-07-30T14:09:09.530Z,2.72
2022-07-30T14:14:15.968Z,3.25
2022-07-30T14:19:23.741Z,1.58
2022-07-30T14:24:28.131Z,3.21
2022-07-30T14:29:43.406Z,2.12
2022-07-30T14:34:40.750Z,3.73
2022-07-30T14:39:52.252Z,2.30
2022-07-30T14:44:54.139Z,2.98
2022-07-30T14:50:01.237Z,2.27
2022-07-30T14:55:00.865Z,1.75
2022-07-30T15:00:11.500Z,2.38
2022-07-30T15:05:12.974Z,2.50
2022-07-30T15:10:12.334Z,2.06
2022-07-30T15:15:38.043Z,2.58
